createdAt,value
2023-02-19T20:04:34.572Z,98119.03
2023-02-19T20:07:01.825Z,98124.63
2023-02-19T20:18:34.797Z,98126.38
2023-02-19T20:22:10.114Z,98139.63
2023-02-19T20:24:36.832Z,98135.66
2023-02-19T20:27:04.168Z,98117.72
2023-02-19T20:29:33.378Z,98149.75
2023-02-19T20:32:02.764Z,98144.44
2023-02-19T20:34:30.402Z,98153.59
2023-02-19T20:36:57.595Z,98149.16
2023-02-19T20:39:28.856Z,98136.41
2023-02-19T20:41:56.796Z,98139.91
2023-02-19T20:44:23.650Z,98146.53
2023-02-19T20:46:52.220Z,98154.84
2023-02-19T20:49:21.112Z,98141.50
2023-02-19T20:51:48.825Z,98135.31
2023-02-19T20:54:17.884Z,98135.34
2023-02-19T20:56:49.548Z,98140.88
2023-02-19T20:59:20.393Z,98140.41
2023-02-19T21:01:47.043Z,98150.88
2023-02-19T21:04:14.274Z,98151.22
2023-02-19T21:06:40.960Z,98154.59
2023-02-19T21:09:08.107Z,98151.59
2023-02-19T21:11:34.901Z,98149.31
2023-02-19T21:14:02.661Z,98159.69
2023-02-19T21:16:31.256Z,98153.75
2023-02-19T21:18:58.645Z,98162.09
2023-02-19T21:21:26.347Z,98153.13
2023-02-19T21:23:54.704Z,98139.22
2023-02-19T21:26:21.504Z,98149.44
2023-02-19T21:28:51.495Z,98146.00
2023-02-19T21:31:19.294Z,98142.97
2023-02-19T21:33:46.594Z,98150.06
2023-02-19T21:36:13.484Z,98147.28
2023-02-19T21:38:40.331Z,98129.66
2023-02-19T21:41:07.102Z,98155.06
2023-02-19T21:43:33.737Z,98158.63
2023-02-19T21:46:00.584Z,98150.38
2023-02-19T21:48:27.289Z,98163.34
2023-02-19T21:50:54.008Z,98159.25
2023-02-19T21:53:20.727Z,98167.84
2023-02-19T21:55:57.798Z,98155.84
2023-02-19T21:58:25.873Z,98177.09
2023-02-19T22:00:53.964Z,98179.31
2023-02-19T22:03:20.888Z,98163.03
2023-02-19T22:05:47.584Z,98172.53
2023-02-19T22:08:15.684Z,98169.66
2023-02-19T22:10:42.660Z,98129.47
2023-02-19T22:13:10.260Z,98200.75
2023-02-19T22:15:37.051Z,98174.69
2023-02-19T22:18:04.105Z,98199.09
2023-02-19T22:20:30.846Z,98192.31
2023-02-19T22:22:57.534Z,98189.84
2023-02-19T22:25:24.244Z,98194.53
2023-02-19T22:27:53.904Z,98203.22
2023-02-19T22:30:23.474Z,98206.28
2023-02-19T22:32:50.321Z,98203.13
2023-02-19T22:35:17.109Z,98210.84
2023-02-19T22:37:43.833Z,98213.09
2023-02-19T22:40:10.905Z,98219.03
2023-02-19T22:42:38.367Z,98204.53
2023-02-19T22:45:06.425Z,98212.38
2023-02-19T22:47:33.159Z,98208.22
2023-02-19T22:49:59.922Z,98208.94
2023-02-19T22:52:28.191Z,98204.41
2023-02-19T22:54:55.709Z,98203.72
2023-02-19T22:57:22.496Z,98190.59
2023-02-19T22:59:49.368Z,98185.34
2023-02-19T23:02:16.105Z,98208.22
2023-02-19T23:04:43.562Z,98196.09
2023-02-19T23:07:14.765Z,98180.38
2023-02-19T23:09:42.888Z,98193.91
2023-02-19T23:12:11.417Z,98203.56
2023-02-19T23:14:38.400Z,98205.16
2023-02-19T23:17:05.441Z,98201.13
2023-02-19T23:19:32.215Z,98207.78
2023-02-19T23:22:00.771Z,98200.88
2023-02-19T23:24:30.804Z,98177.13
2023-02-19T23:26:57.796Z,98183.59
2023-02-19T23:29:34.604Z,98194.75
2023-02-19T23:32:04.497Z,98173.53
2023-02-19T23:34:34.108Z,98181.53
2023-02-19T23:37:03.737Z,98197.81
2023-02-19T23:39:32.997Z,98186.63
2023-02-19T23:41:59.761Z,98187.06
2023-02-19T23:44:26.552Z,98195.09
2023-02-19T23:46:53.235Z,98193.16
2023-02-19T23:49:20.384Z,98206.13
2023-02-19T23:51:47.410Z,98194.94
2023-02-19T23:54:14.170Z,98210.56
2023-02-19T23:56:40.962Z,98206.84
2023-02-19T23:59:07.657Z,98211.28
